sensor_id;sensor_type;location;lat;lon;timestamp;pressure;altitude;pressure_sealevel;temperature;humidity
29163;BME280;20331;53.144;8.208;2023-04-04T00:05:10;103342.19;;;4.42;68.80
29163;BME280;20331;53.144;8.208;2023-04-04T00:15:31;103351.97;;;4.28;68.52
29163;BME280;20331;53.144;8.208;2023-04-04T00:25:54;103348.13;;;4.17;69.40
29163;BME280;20331;53.144;8.208;2023-04-04T00:36:16;103343.66;;;4.12;69.36
29163;BME280;20331;53.144;8.208;2023-04-04T00:46:37;103333.03;;;4.01;69.74
29163;BME280;20331;53.144;8.208;2023-04-04T00:56:59;103312.09;;;3.90;69.38
29163;BME280;20331;53.144;8.208;2023-04-04T01:07:21;103315.25;;;3.83;69.84
29163;BME280;20331;53.144;8.208;2023-04-04T01:17:42;103302.22;;;3.77;69.30
29163;BME280;20331;53.144;8.208;2023-04-04T01:28:05;103291.72;;;3.70;69.32
29163;BME280;20331;53.144;8.208;2023-04-04T01:38:29;103298.97;;;3.59;69.13
29163;BME280;20331;53.144;8.208;2023-04-04T01:48:51;103298.81;;;3.55;70.55
29163;BME280;20331;53.144;8.208;2023-04-04T01:59:12;103285.78;;;3.49;70.10
29163;BME280;20331;53.144;8.208;2023-04-04T02:09:34;103279.63;;;3.44;69.66
29163;BME280;20331;53.144;8.208;2023-04-04T02:19:55;103283.31;;;3.30;70.50
29163;BME280;20331;53.144;8.208;2023-04-04T02:30:17;103279.59;;;3.22;69.39
29163;BME280;20331;53.144;8.208;2023-04-04T02:40:39;103280.38;;;3.21;70.64
29163;BME280;20331;53.144;8.208;2023-04-04T02:51:03;103269.94;;;3.15;70.95
29163;BME280;20331;53.144;8.208;2023-04-04T03:01:24;103261.91;;;3.05;71.34
29163;BME280;20331;53.144;8.208;2023-04-04T03:11:46;103263.38;;;3.00;70.96
29163;BME280;20331;53.144;8.208;2023-04-04T03:22:07;103243.28;;;2.87;71.58
29163;BME280;20331;53.144;8.208;2023-04-04T03:32:29;103230.91;;;2.77;71.33
29163;BME280;20331;53.144;8.208;2023-04-04T03:42:50;103232.53;;;2.75;71.89
29163;BME280;20331;53.144;8.208;2023-04-04T03:53:12;103218.72;;;2.70;72.02
29163;BME280;20331;53.144;8.208;2023-04-04T04:03:33;103229.59;;;2.66;71.12
29163;BME280;20331;53.144;8.208;2023-04-04T04:13:55;103223.50;;;2.63;72.03
29163;BME280;20331;53.144;8.208;2023-04-04T04:24:16;103232.84;;;2.62;71.48
29163;BME280;20331;53.144;8.208;2023-04-04T04:34:38;103241.56;;;2.47;71.17
29163;BME280;20331;53.144;8.208;2023-04-04T04:44:59;103230.97;;;2.38;71.75
29163;BME280;20331;53.144;8.208;2023-04-04T04:55:20;103223.94;;;2.32;72.07
29163;BME280;20331;53.144;8.208;2023-04-04T05:05:42;103234.16;;;2.32;72.63
29163;BME280;20331;53.144;8.208;2023-04-04T05:16:04;103238.91;;;2.25;71.36
29163;BME280;20331;53.144;8.208;2023-04-04T05:26:25;103256.75;;;2.23;71.64
29163;BME280;20331;53.144;8.208;2023-04-04T05:36:47;103260.22;;;2.25;72.21
29163;BME280;20331;53.144;8.208;2023-04-04T05:47:08;103250.69;;;2.21;71.65
29163;BME280;20331;53.144;8.208;2023-04-04T05:57:29;103266.00;;;2.21;71.96
29163;BME280;20331;53.144;8.208;2023-04-04T06:07:52;103262.91;;;2.28;72.63
29163;BME280;20331;53.144;8.208;2023-04-04T06:18:14;103257.25;;;2.35;72.66
29163;BME280;20331;53.144;8.208;2023-04-04T06:28:45;103264.34;;;2.42;72.87
29163;BME280;20331;53.144;8.208;2023-04-04T06:39:06;103276.34;;;2.43;72.03
29163;BME280;20331;53.144;8.208;2023-04-04T06:49:28;103278.69;;;2.39;73.09
29163;BME280;20331;53.144;8.208;2023-04-04T06:59:49;103269.63;;;2.45;72.32
29163;BME280;20331;53.144;8.208;2023-04-04T07:10:10;103273.00;;;2.65;72.65
29163;BME280;20331;53.144;8.208;2023-04-04T07:20:32;103268.44;;;2.78;71.47
29163;BME280;20331;53.144;8.208;2023-04-04T07:30:53;103253.47;;;3.08;70.61
29163;BME280;20331;53.144;8.208;2023-04-04T07:41:15;103257.84;;;3.33;68.25
29163;BME280;20331;53.144;8.208;2023-04-04T07:51:36;103245.88;;;3.54;69.30
29163;BME280;20331;53.144;8.208;2023-04-04T08:01:59;103245.66;;;3.70;69.85
29163;BME280;20331;53.144;8.208;2023-04-04T08:12:21;103248.00;;;3.87;68.83
29163;BME280;20331;53.144;8.208;2023-04-04T08:22:42;103235.13;;;4.09;68.53
29163;BME280;20331;53.144;8.208;2023-04-04T08:33:04;103231.13;;;4.41;68.09
29163;BME280;20331;53.144;8.208;2023-04-04T08:43:26;103214.09;;;4.68;68.08
29163;BME280;20331;53.144;8.208;2023-04-04T08:53:48;103214.13;;;4.96;66.41
29163;BME280;20331;53.144;8.208;2023-04-04T09:04:10;103211.41;;;5.19;67.90
29163;BME280;20331;53.144;8.208;2023-04-04T09:14:32;103202.81;;;5.46;65.87
29163;BME280;20331;53.144;8.208;2023-04-04T09:24:54;103206.56;;;5.57;64.88
29163;BME280;20331;53.144;8.208;2023-04-04T09:35:16;103197.44;;;5.67;63.75
29163;BME280;20331;53.144;8.208;2023-04-04T09:45:40;103187.59;;;5.82;63.38
29163;BME280;20331;53.144;8.208;2023-04-04T09:56:02;103193.09;;;5.94;60.93
29163;BME280;20331;53.144;8.208;2023-04-04T10:06:24;103205.25;;;6.01;61.98
29163;BME280;20331;53.144;8.208;2023-04-04T10:16:45;103197.53;;;6.32;57.92
29163;BME280;20331;53.144;8.208;2023-04-04T10:27:07;103179.22;;;6.88;61.83
29163;BME280;20331;53.144;8.208;2023-04-04T10:37:31;103164.09;;;7.03;58.07
29163;BME280;20331;53.144;8.208;2023-04-04T10:47:53;103155.81;;;7.17;58.06
29163;BME280;20331;53.144;8.208;2023-04-04T10:58:15;103150.09;;;7.30;59.40
29163;BME280;20331;53.144;8.208;2023-04-04T11:08:37;103143.25;;;7.32;57.93
29163;BME280;20331;53.144;8.208;2023-04-04T11:18:59;103129.47;;;7.30;59.73
29163;BME280;20331;53.144;8.208;2023-04-04T11:29:48;103127.56;;;7.20;45.63
29163;BME280;20331;53.144;8.208;2023-04-04T11:40:09;103115.22;;;7.45;58.02
29163;BME280;20331;53.144;8.208;2023-04-04T11:50:33;103113.81;;;7.62;53.28
29163;BME280;20331;53.144;8.208;2023-04-04T12:00:55;103086.97;;;7.97;56.94
29163;BME280;20331;53.144;8.208;2023-04-04T12:11:17;103073.59;;;8.20;58.65
29163;BME280;20331;53.144;8.208;2023-04-04T12:21:40;103059.34;;;8.41;55.05
29163;BME280;20331;53.144;8.208;2023-04-04T12:32:02;103045.69;;;8.48;56.69
29163;BME280;20331;53.144;8.208;2023-04-04T12:42:24;103022.69;;;8.65;45.65
29163;BME280;20331;53.144;8.208;2023-04-04T12:52:46;103014.16;;;8.70;55.34
29163;BME280;20331;53.144;8.208;2023-04-04T13:03:12;102999.75;;;8.87;57.18
29163;BME280;20331;53.144;8.208;2023-04-04T13:13:38;102990.34;;;8.92;54.72
29163;BME280;20331;53.144;8.208;2023-04-04T13:24:00;102971.47;;;8.95;53.24
29163;BME280;20331;53.144;8.208;2023-04-04T13:34:22;102961.16;;;9.01;54.22
29163;BME280;20331;53.144;8.208;2023-04-04T13:44:46;102955.06;;;8.91;55.95
29163;BME280;20331;53.144;8.208;2023-04-04T13:55:08;102934.31;;;8.82;52.94
29163;BME280;20331;53.144;8.208;2023-04-04T14:05:30;102918.16;;;9.03;46.75
29163;BME280;20331;53.144;8.208;2023-04-04T14:15:51;102908.06;;;9.29;54.32
29163;BME280;20331;53.144;8.208;2023-04-04T14:26:13;102903.94;;;9.49;52.62
29163;BME280;20331;53.144;8.208;2023-04-04T14:36:34;102888.66;;;9.76;54.64
29163;BME280;20331;53.144;8.208;2023-04-04T14:46:56;102875.03;;;10.07;53.25
29163;BME280;20331;53.144;8.208;2023-04-04T14:57:17;102883.72;;;10.12;51.63
29163;BME280;20331;53.144;8.208;2023-04-04T15:07:39;102865.63;;;10.17;54.67
29163;BME280;20331;53.144;8.208;2023-04-04T15:18:00;102863.88;;;10.09;54.92
29163;BME280;20331;53.144;8.208;2023-04-04T15:28:22;102849.19;;;10.08;51.00
29163;BME280;20331;53.144;8.208;2023-04-04T15:38:44;102846.63;;;10.13;51.12
29163;BME280;20331;53.144;8.208;2023-04-04T15:49:05;102840.63;;;10.20;55.74
29163;BME280;20331;53.144;8.208;2023-04-04T15:59:26;102840.47;;;9.87;55.66
29163;BME280;20331;53.144;8.208;2023-04-04T16:09:51;102837.63;;;9.48;58.82
29163;BME280;20331;53.144;8.208;2023-04-04T16:20:13;102851.16;;;9.20;58.07
29163;BME280;20331;53.144;8.208;2023-04-04T16:30:34;102843.19;;;8.89;59.85
29163;BME280;20331;53.144;8.208;2023-04-04T16:41:00;102842.19;;;8.77;60.51
29163;BME280;20331;53.144;8.208;2023-04-04T16:51:21;102837.66;;;8.53;60.48
29163;BME280;20331;53.144;8.208;2023-04-04T17:01:43;102839.25;;;8.44;60.64
29163;BME280;20331;53.144;8.208;2023-04-04T17:12:04;102836.38;;;8.21;61.35
29163;BME280;20331;53.144;8.208;2023-04-04T17:22:26;102832.63;;;7.96;61.31
29163;BME280;20331;53.144;8.208;2023-04-04T17:32:47;102835.91;;;7.85;61.52
29163;BME280;20331;53.144;8.208;2023-04-04T17:43:11;102833.97;;;7.69;60.37
29163;BME280;20331;53.144;8.208;2023-04-04T17:53:32;102829.38;;;7.48;59.89
29163;BME280;20331;53.144;8.208;2023-04-04T18:03:53;102832.69;;;7.40;61.16
29163;BME280;20331;53.144;8.208;2023-04-04T18:14:15;102824.69;;;7.23;58.00
29163;BME280;20331;53.144;8.208;2023-04-04T18:24:37;102822.94;;;7.22;62.49
29163;BME280;20331;53.144;8.208;2023-04-04T18:34:59;102826.16;;;7.09;63.89
29163;BME280;20331;53.144;8.208;2023-04-04T18:45:20;102832.00;;;6.97;63.71
29163;BME280;20331;53.144;8.208;2023-04-04T18:55:57;102819.84;;;6.90;64.49
29163;BME280;20331;53.144;8.208;2023-04-04T19:06:21;102832.59;;;6.83;65.86
29163;BME280;20331;53.144;8.208;2023-04-04T19:16:44;102842.00;;;6.81;65.89
29163;BME280;20331;53.144;8.208;2023-04-04T19:27:06;102828.06;;;6.68;65.51
29163;BME280;20331;53.144;8.208;2023-04-04T19:37:27;102833.75;;;6.54;65.90
29163;BME280;20331;53.144;8.208;2023-04-04T19:47:50;102832.72;;;6.44;65.03
29163;BME280;20331;53.144;8.208;2023-04-04T19:58:17;102840.16;;;6.31;65.41
29163;BME280;20331;53.144;8.208;2023-04-04T20:08:42;102822.91;;;6.25;66.83
29163;BME280;20331;53.144;8.208;2023-04-04T20:19:11;102830.25;;;6.07;66.85
29163;BME280;20331;53.144;8.208;2023-04-04T20:29:34;102824.78;;;5.90;65.92
29163;BME280;20331;53.144;8.208;2023-04-04T20:39:57;102823.81;;;5.85;67.43
29163;BME280;20331;53.144;8.208;2023-04-04T21:00:43;102826.78;;;5.66;67.37
29163;BME280;20331;53.144;8.208;2023-04-04T21:11:05;102818.84;;;5.56;67.50
29163;BME280;20331;53.144;8.208;2023-04-04T21:21:27;102812.75;;;5.52;68.29
29163;BME280;20331;53.144;8.208;2023-04-04T21:31:50;102801.47;;;5.46;68.46
29163;BME280;20331;53.144;8.208;2023-04-04T21:42:12;102806.53;;;5.43;68.85
29163;BME280;20331;53.144;8.208;2023-04-04T21:52:34;102802.16;;;5.39;68.55
29163;BME280;20331;53.144;8.208;2023-04-04T22:02:55;102790.03;;;5.32;69.41
29163;BME280;20331;53.144;8.208;2023-04-04T22:13:17;102784.81;;;5.27;68.80
29163;BME280;20331;53.144;8.208;2023-04-04T22:23:39;102787.19;;;5.20;68.88
29163;BME280;20331;53.144;8.208;2023-04-04T22:34:01;102771.81;;;5.20;69.83
29163;BME280;20331;53.144;8.208;2023-04-04T22:44:26;102778.53;;;5.15;70.32
29163;BME280;20331;53.144;8.208;2023-04-04T22:54:47;102769.78;;;5.06;70.21
29163;BME280;20331;53.144;8.208;2023-04-04T23:05:09;102774.69;;;4.97;69.45
29163;BME280;20331;53.144;8.208;2023-04-04T23:15:31;102772.00;;;4.93;70.07
29163;BME280;20331;53.144;8.208;2023-04-04T23:25:55;102774.31;;;4.82;70.58
29163;BME280;20331;53.144;8.208;2023-04-04T23:36:18;102759.53;;;4.72;70.68
29163;BME280;20331;53.144;8.208;2023-04-04T23:46:40;102751.53;;;4.60;71.19
29163;BME280;20331;53.144;8.208;2023-04-04T23:57:02;102756.47;;;4.53;71.04
